sensor_id;sensor_type;location;lat;lon;timestamp;pressure;altitude;pressure_sealevel;temperature;humidity
65758;BME280;52495;52.208;5.158;2023-03-14T00:01:10;98745.16;;;10.94;79.76
65758;BME280;52495;52.208;5.158;2023-03-14T00:03:37;98744.31;;;10.93;79.56
65758;BME280;52495;52.208;5.158;2023-03-14T00:06:06;98754.81;;;10.90;79.81
65758;BME280;52495;52.208;5.158;2023-03-14T00:08:34;98750.50;;;10.91;79.83
65758;BME280;52495;52.208;5.158;2023-03-14T00:11:04;98744.41;;;10.92;79.60
65758;BME280;52495;52.208;5.158;2023-03-14T00:13:31;98739.97;;;10.94;79.33
65758;BME280;52495;52.208;5.158;2023-03-14T00:16:02;98738.34;;;10.93;79.25
65758;BME280;52495;52.208;5.158;2023-03-14T00:18:29;98741.66;;;10.95;79.40
65758;BME280;52495;52.208;5.158;2023-03-14T00:20:58;98749.25;;;10.98;79.10
65758;BME280;52495;52.208;5.158;2023-03-14T00:23:26;98743.16;;;10.99;79.41
65758;BME280;52495;52.208;5.158;2023-03-14T00:25:53;98748.47;;;10.96;79.58
65758;BME280;52495;52.208;5.158;2023-03-14T00:28:20;98741.59;;;10.97;79.16
65758;BME280;52495;52.208;5.158;2023-03-14T00:30:47;98740.53;;;11.01;79.39
65758;BME280;52495;52.208;5.158;2023-03-14T00:33:13;98738.59;;;11.04;79.38
65758;BME280;52495;52.208;5.158;2023-03-14T00:35:40;98734.09;;;11.08;79.22
65758;BME280;52495;52.208;5.158;2023-03-14T00:38:07;98730.59;;;11.09;79.38
65758;BME280;52495;52.208;5.158;2023-03-14T00:40:38;98730.50;;;11.11;79.07
65758;BME280;52495;52.208;5.158;2023-03-14T00:43:05;98735.84;;;11.07;79.44
65758;BME280;52495;52.208;5.158;2023-03-14T00:45:34;98733.44;;;11.04;80.23
65758;BME280;52495;52.208;5.158;2023-03-14T00:48:01;98740.66;;;10.98;80.62
65758;BME280;52495;52.208;5.158;2023-03-14T00:50:28;98739.81;;;10.97;80.65
65758;BME280;52495;52.208;5.158;2023-03-14T00:52:55;98752.16;;;10.92;80.97
65758;BME280;52495;52.208;5.158;2023-03-14T00:55:21;98754.16;;;10.87;81.10
65758;BME280;52495;52.208;5.158;2023-03-14T00:57:50;98751.41;;;10.90;80.53
65758;BME280;52495;52.208;5.158;2023-03-14T01:00:17;98747.06;;;10.90;80.71
65758;BME280;52495;52.208;5.158;2023-03-14T01:02:44;98743.81;;;10.87;80.76
65758;BME280;52495;52.208;5.158;2023-03-14T01:05:10;98749.44;;;10.77;82.36
65758;BME280;52495;52.208;5.158;2023-03-14T01:07:37;98752.59;;;10.67;83.25
65758;BME280;52495;52.208;5.158;2023-03-14T01:10:06;98749.25;;;10.65;84.40
65758;BME280;52495;52.208;5.158;2023-03-14T01:12:33;98743.34;;;10.62;84.37
65758;BME280;52495;52.208;5.158;2023-03-14T01:15:03;98759.06;;;10.58;85.69
65758;BME280;52495;52.208;5.158;2023-03-14T01:17:31;98748.28;;;10.50;86.61
65758;BME280;52495;52.208;5.158;2023-03-14T01:19:59;98745.84;;;10.46;86.89
65758;BME280;52495;52.208;5.158;2023-03-14T01:22:26;98747.69;;;10.44;87.23
65758;BME280;52495;52.208;5.158;2023-03-14T01:24:52;98751.25;;;10.42;87.31
65758;BME280;52495;52.208;5.158;2023-03-14T01:27:19;98754.66;;;10.42;88.13
65758;BME280;52495;52.208;5.158;2023-03-14T01:29:46;98754.19;;;10.34;91.34
65758;BME280;52495;52.208;5.158;2023-03-14T01:32:15;98757.78;;;10.31;91.89
65758;BME280;52495;52.208;5.158;2023-03-14T01:34:42;98764.81;;;10.28;93.22
65758;BME280;52495;52.208;5.158;2023-03-14T01:37:09;98759.13;;;10.21;93.99
65758;BME280;52495;52.208;5.158;2023-03-14T01:39:38;98764.50;;;10.16;95.43
65758;BME280;52495;52.208;5.158;2023-03-14T01:42:04;98759.59;;;10.12;95.69
65758;BME280;52495;52.208;5.158;2023-03-14T01:44:49;98759.81;;;10.07;95.55
65758;BME280;52495;52.208;5.158;2023-03-14T01:47:18;98748.50;;;10.10;94.95
65758;BME280;52495;52.208;5.158;2023-03-14T01:49:46;98752.59;;;9.96;95.83
65758;BME280;52495;52.208;5.158;2023-03-14T01:52:19;98749.25;;;9.94;96.60
65758;BME280;52495;52.208;5.158;2023-03-14T01:54:50;98742.97;;;10.00;95.59
65758;BME280;52495;52.208;5.158;2023-03-14T01:57:20;98750.16;;;9.93;95.50
65758;BME280;52495;52.208;5.158;2023-03-14T01:59:53;98740.00;;;9.90;95.82
65758;BME280;52495;52.208;5.158;2023-03-14T02:02:23;98737.28;;;9.93;95.79
65758;BME280;52495;52.208;5.158;2023-03-14T02:04:52;98733.84;;;9.93;95.21
65758;BME280;52495;52.208;5.158;2023-03-14T02:07:25;98730.38;;;9.94;95.58
65758;BME280;52495;52.208;5.158;2023-03-14T02:10:10;98720.00;;;9.95;94.87
65758;BME280;52495;52.208;5.158;2023-03-14T02:12:37;98723.25;;;9.99;94.40
65758;BME280;52495;52.208;5.158;2023-03-14T02:15:13;98710.34;;;9.99;93.79
65758;BME280;52495;52.208;5.158;2023-03-14T02:17:59;98725.28;;;9.92;94.14
65758;BME280;52495;52.208;5.158;2023-03-14T02:21:00;98709.59;;;9.97;94.14
65758;BME280;52495;52.208;5.158;2023-03-14T02:23:35;98706.97;;;9.98;94.06
65758;BME280;52495;52.208;5.158;2023-03-14T02:26:09;98706.88;;;10.00;93.86
65758;BME280;52495;52.208;5.158;2023-03-14T02:28:39;98709.22;;;10.05;93.35
65758;BME280;52495;52.208;5.158;2023-03-14T02:31:06;98703.28;;;10.02;93.40
65758;BME280;52495;52.208;5.158;2023-03-14T02:33:35;98703.81;;;10.09;92.85
65758;BME280;52495;52.208;5.158;2023-03-14T02:36:05;98707.50;;;10.05;93.05
65758;BME280;52495;52.208;5.158;2023-03-14T02:38:36;98704.16;;;10.03;92.74
65758;BME280;52495;52.208;5.158;2023-03-14T02:41:06;98703.38;;;10.01;93.68
65758;BME280;52495;52.208;5.158;2023-03-14T02:43:40;98704.06;;;10.05;92.82
65758;BME280;52495;52.208;5.158;2023-03-14T02:46:12;98700.81;;;10.01;93.16
65758;BME280;52495;52.208;5.158;2023-03-14T02:48:41;98705.28;;;9.97;94.07
65758;BME280;52495;52.208;5.158;2023-03-14T02:51:10;98694.28;;;9.94;93.26
65758;BME280;52495;52.208;5.158;2023-03-14T02:53:39;98691.69;;;9.94;93.82
65758;BME280;52495;52.208;5.158;2023-03-14T02:56:10;98692.59;;;9.93;94.15
65758;BME280;52495;52.208;5.158;2023-03-14T02:58:37;98687.91;;;10.01;93.27
65758;BME280;52495;52.208;5.158;2023-03-14T03:01:16;98690.72;;;9.96;93.27
65758;BME280;52495;52.208;5.158;2023-03-14T03:03:43;98697.09;;;9.89;94.58
65758;BME280;52495;52.208;5.158;2023-03-14T03:06:11;98689.13;;;9.94;94.07
65758;BME280;52495;52.208;5.158;2023-03-14T03:08:37;98689.22;;;9.92;93.82
65758;BME280;52495;52.208;5.158;2023-03-14T03:11:05;98678.81;;;9.94;93.80
65758;BME280;52495;52.208;5.158;2023-03-14T03:13:33;98691.56;;;9.97;93.88
65758;BME280;52495;52.208;5.158;2023-03-14T03:16:02;98683.97;;;9.94;93.75
65758;BME280;52495;52.208;5.158;2023-03-14T03:18:31;98680.63;;;9.92;94.23
65758;BME280;52495;52.208;5.158;2023-03-14T03:20:59;98676.47;;;9.89;93.74
65758;BME280;52495;52.208;5.158;2023-03-14T03:23:26;98668.72;;;9.89;94.36
65758;BME280;52495;52.208;5.158;2023-03-14T03:25:53;98679.91;;;9.90;94.22
65758;BME280;52495;52.208;5.158;2023-03-14T03:28:20;98672.84;;;9.93;93.68
65758;BME280;52495;52.208;5.158;2023-03-14T03:30:48;98674.56;;;9.93;93.66
65758;BME280;52495;52.208;5.158;2023-03-14T03:33:15;98675.41;;;9.93;93.92
65758;BME280;52495;52.208;5.158;2023-03-14T03:35:47;98675.41;;;9.93;94.12
65758;BME280;52495;52.208;5.158;2023-03-14T03:38:17;98671.06;;;9.94;94.14
65758;BME280;52495;52.208;5.158;2023-03-14T03:40:47;98677.09;;;9.94;94.17
65758;BME280;52495;52.208;5.158;2023-03-14T03:43:15;98672.75;;;9.95;93.89
65758;BME280;52495;52.208;5.158;2023-03-14T03:45:43;98682.16;;;9.96;93.87
65758;BME280;52495;52.208;5.158;2023-03-14T03:48:10;98670.16;;;9.95;93.83
65758;BME280;52495;52.208;5.158;2023-03-14T03:50:37;98675.03;;;10.01;93.58
65758;BME280;52495;52.208;5.158;2023-03-14T03:53:11;98669.88;;;10.01;93.44
65758;BME280;52495;52.208;5.158;2023-03-14T03:55:40;98671.53;;;10.02;93.82
65758;BME280;52495;52.208;5.158;2023-03-14T03:58:08;98674.03;;;10.03;93.72
65758;BME280;52495;52.208;5.158;2023-03-14T04:00:35;98668.88;;;10.03;93.82
65758;BME280;52495;52.208;5.158;2023-03-14T04:03:02;98669.72;;;10.04;93.75
65758;BME280;52495;52.208;5.158;2023-03-14T04:05:29;98671.53;;;10.02;93.40
65758;BME280;52495;52.208;5.158;2023-03-14T04:08:02;98677.75;;;9.98;93.14
65758;BME280;52495;52.208;5.158;2023-03-14T04:10:35;98667.28;;;10.01;92.73
65758;BME280;52495;52.208;5.158;2023-03-14T04:13:16;98667.06;;;10.06;92.87
65758;BME280;52495;52.208;5.158;2023-03-14T04:15:47;98673.34;;;10.00;92.38
65758;BME280;52495;52.208;5.158;2023-03-14T04:18:20;98672.38;;;10.02;92.73
65758;BME280;52495;52.208;5.158;2023-03-14T04:20:51;98679.34;;;10.00;92.89
65758;BME280;52495;52.208;5.158;2023-03-14T04:23:19;98673.34;;;10.00;93.24
65758;BME280;52495;52.208;5.158;2023-03-14T04:25:50;98677.00;;;9.96;93.20
65758;BME280;52495;52.208;5.158;2023-03-14T04:28:17;98673.50;;;9.97;92.72
65758;BME280;52495;52.208;5.158;2023-03-14T04:30:44;98674.28;;;9.99;93.06
65758;BME280;52495;52.208;5.158;2023-03-14T04:33:15;98671.59;;;10.00;92.46
65758;BME280;52495;52.208;5.158;2023-03-14T04:35:47;98664.56;;;10.04;92.12
65758;BME280;52495;52.208;5.158;2023-03-14T04:38:16;98667.97;;;10.05;92.34
65758;BME280;52495;52.208;5.158;2023-03-14T04:40:44;98669.72;;;10.04;92.81
65758;BME280;52495;52.208;5.158;2023-03-14T04:43:14;98652.59;;;10.03;93.27
65758;BME280;52495;52.208;5.158;2023-03-14T04:45:46;98667.22;;;10.02;93.42
65758;BME280;52495;52.208;5.158;2023-03-14T04:48:13;98656.22;;;9.99;93.69
65758;BME280;52495;52.208;5.158;2023-03-14T04:50:40;98663.97;;;9.99;94.18
65758;BME280;52495;52.208;5.158;2023-03-14T04:53:08;98663.34;;;9.94;95.18
65758;BME280;52495;52.208;5.158;2023-03-14T04:55:35;98664.44;;;9.90;97.01
65758;BME280;52495;52.208;5.158;2023-03-14T04:58:01;98660.63;;;9.97;97.53
65758;BME280;52495;52.208;5.158;2023-03-14T05:00:30;98662.06;;;9.85;98.54
65758;BME280;52495;52.208;5.158;2023-03-14T05:03:23;98658.88;;;9.80;99.88
65758;BME280;52495;52.208;5.158;2023-03-14T05:06:08;98669.56;;;9.72;100.00
65758;BME280;52495;52.208;5.158;2023-03-14T05:08:48;98668.06;;;9.68;100.00
65758;BME280;52495;52.208;5.158;2023-03-14T05:11:34;98668.28;;;9.63;100.00
65758;BME280;52495;52.208;5.158;2023-03-14T05:14:17;98671.00;;;9.60;100.00
65758;BME280;52495;52.208;5.158;2023-03-14T05:17:04;98659.84;;;9.60;100.00
65758;BME280;52495;52.208;5.158;2023-03-14T05:19:50;98663.50;;;9.55;100.00
65758;BME280;52495;52.208;5.158;2023-03-14T05:22:46;98664.22;;;9.57;100.00
65758;BME280;52495;52.208;5.158;2023-03-14T05:25:24;98651.28;;;9.59;100.00
65758;BME280;52495;52.208;5.158;2023-03-14T05:28:20;98638.41;;;9.59;100.00
65758;BME280;52495;52.208;5.158;2023-03-14T05:30:57;98634.03;;;9.61;100.00
65758;BME280;52495;52.208;5.158;2023-03-14T05:33:42;98630.59;;;9.61;100.00
65758;BME280;52495;52.208;5.158;2023-03-14T05:36:38;98625.44;;;9.61;100.00
65758;BME280;52495;52.208;5.158;2023-03-14T05:39:23;98626.50;;;9.56;100.00
65758;BME280;52495;52.208;5.158;2023-03-14T05:42:02;98630.97;;;9.53;100.00
65758;BME280;52495;52.208;5.158;2023-03-14T05:45:05;98631.88;;;9.52;100.00
65758;BME280;52495;52.208;5.158;2023-03-14T05:47:57;98634.41;;;9.53;100.00
65758;BME280;52495;52.208;5.158;2023-03-14T05:50:37;98632.41;;;9.59;100.00
65758;BME280;52495;52.208;5.158;2023-03-14T05:53:17;98645.63;;;9.52;100.00
65758;BME280;52495;52.208;5.158;2023-03-14T05:55:54;98643.84;;;9.53;100.00
65758;BME280;52495;52.208;5.158;2023-03-14T05:58:33;98662.25;;;9.45;100.00
65758;BME280;52495;52.208;5.158;2023-03-14T06:01:09;98659.22;;;9.37;100.00
65758;BME280;52495;52.208;5.158;2023-03-14T06:03:57;98662.84;;;9.33;100.00
65758;BME280;52495;52.208;5.158;2023-03-14T06:06:25;98667.91;;;9.34;100.00
65758;BME280;52495;52.208;5.158;2023-03-14T06:08:52;98671.25;;;9.36;100.00
65758;BME280;52495;52.208;5.158;2023-03-14T06:11:19;98681.91;;;9.29;100.00
65758;BME280;52495;52.208;5.158;2023-03-14T06:13:45;98695.00;;;9.24;100.00
65758;BME280;52495;52.208;5.158;2023-03-14T06:16:13;98714.97;;;9.19;100.00
65758;BME280;52495;52.208;5.158;2023-03-14T06:18:40;98720.78;;;9.05;100.00
65758;BME280;52495;52.208;5.158;2023-03-14T06:21:08;98729.78;;;8.75;100.00
65758;BME280;52495;52.208;5.158;2023-03-14T06:23:37;98732.38;;;8.55;100.00
65758;BME280;52495;52.208;5.158;2023-03-14T06:26:05;98746.00;;;8.77;100.00
65758;BME280;52495;52.208;5.158;2023-03-14T06:28:32;98753.03;;;8.93;100.00
65758;BME280;52495;52.208;5.158;2023-03-14T06:31:01;98762.09;;;8.62;100.00
65758;BME280;52495;52.208;5.158;2023-03-14T06:33:33;98781.63;;;8.66;100.00
65758;BME280;52495;52.208;5.158;2023-03-14T06:36:00;98790.97;;;8.48;100.00
65758;BME280;52495;52.208;5.158;2023-03-14T06:38:27;98788.41;;;8.48;100.00
65758;BME280;52495;52.208;5.158;2023-03-14T06:41:03;98795.75;;;8.35;100.00
65758;BME280;52495;52.208;5.158;2023-03-14T06:43:34;98794.97;;;8.33;100.00
65758;BME280;52495;52.208;5.158;2023-03-14T06:46:02;98803.00;;;8.25;100.00
65758;BME280;52495;52.208;5.158;2023-03-14T06:48:31;98806.22;;;8.30;100.00
65758;BME280;52495;52.208;5.158;2023-03-14T06:50:58;98812.03;;;8.35;100.00
65758;BME280;52495;52.208;5.158;2023-03-14T06:53:25;98828.91;;;8.20;100.00
65758;BME280;52495;52.208;5.158;2023-03-14T06:55:52;98835.75;;;8.20;100.00
65758;BME280;52495;52.208;5.158;2023-03-14T06:58:20;98841.97;;;8.37;100.00
65758;BME280;52495;52.208;5.158;2023-03-14T07:00:47;98848.84;;;8.36;100.00
65758;BME280;52495;52.208;5.158;2023-03-14T07:03:20;98862.78;;;8.30;100.00
65758;BME280;52495;52.208;5.158;2023-03-14T07:05:49;98872.22;;;8.30;100.00
65758;BME280;52495;52.208;5.158;2023-03-14T07:08:16;98883.38;;;7.84;100.00
65758;BME280;52495;52.208;5.158;2023-03-14T07:10:44;98882.47;;;7.63;100.00
65758;BME280;52495;52.208;5.158;2023-03-14T07:13:11;98896.72;;;7.94;100.00
65758;BME280;52495;52.208;5.158;2023-03-14T07:15:50;98910.88;;;7.82;100.00
65758;BME280;52495;52.208;5.158;2023-03-14T07:18:16;98919.47;;;7.81;99.97
65758;BME280;52495;52.208;5.158;2023-03-14T07:20:44;98938.72;;;7.46;100.00
65758;BME280;52495;52.208;5.158;2023-03-14T07:23:12;98952.47;;;7.44;98.79
65758;BME280;52495;52.208;5.158;2023-03-14T07:25:45;98961.25;;;7.37;98.83
65758;BME280;52495;52.208;5.158;2023-03-14T07:28:13;98971.06;;;7.51;98.46
65758;BME280;52495;52.208;5.158;2023-03-14T07:30:42;98988.41;;;7.44;99.29
65758;BME280;52495;52.208;5.158;2023-03-14T07:33:16;99002.81;;;7.23;98.37
65758;BME280;52495;52.208;5.158;2023-03-14T07:35:43;99021.31;;;7.33;97.92
65758;BME280;52495;52.208;5.158;2023-03-14T07:38:10;99014.94;;;7.18;97.06
65758;BME280;52495;52.208;5.158;2023-03-14T07:40:45;99023.72;;;7.38;97.78
65758;BME280;52495;52.208;5.158;2023-03-14T07:43:12;99032.50;;;7.31;97.85
65758;BME280;52495;52.208;5.158;2023-03-14T07:45:46;99051.63;;;7.49;96.72
65758;BME280;52495;52.208;5.158;2023-03-14T07:48:12;99053.19;;;7.26;97.79
65758;BME280;52495;52.208;5.158;2023-03-14T07:50:40;99080.75;;;7.48;97.78
65758;BME280;52495;52.208;5.158;2023-03-14T07:53:07;99098.94;;;7.13;97.63
65758;BME280;52495;52.208;5.158;2023-03-14T07:55:34;99104.97;;;6.83;97.36
65758;BME280;52495;52.208;5.158;2023-03-14T07:58:01;99123.00;;;6.50;100.00
65758;BME280;52495;52.208;5.158;2023-03-14T08:00:28;99133.69;;;6.35;99.92
65758;BME280;52495;52.208;5.158;2023-03-14T08:02:54;99157.03;;;6.24;100.00
65758;BME280;52495;52.208;5.158;2023-03-14T08:05:21;99170.47;;;5.99;100.00
65758;BME280;52495;52.208;5.158;2023-03-14T08:07:49;99177.69;;;5.83;100.00
65758;BME280;52495;52.208;5.158;2023-03-14T08:10:16;99195.88;;;5.74;100.00
65758;BME280;52495;52.208;5.158;2023-03-14T08:12:47;99214.72;;;5.71;100.00
65758;BME280;52495;52.208;5.158;2023-03-14T08:15:14;99218.03;;;5.75;100.00
65758;BME280;52495;52.208;5.158;2023-03-14T08:17:41;99220.59;;;5.73;100.00
65758;BME280;52495;52.208;5.158;2023-03-14T08:20:09;99226.59;;;5.72;100.00
65758;BME280;52495;52.208;5.158;2023-03-14T08:22:37;99243.66;;;5.73;98.60
65758;BME280;52495;52.208;5.158;2023-03-14T08:25:07;99257.63;;;5.60;98.35
65758;BME280;52495;52.208;5.158;2023-03-14T08:27:34;99269.53;;;5.61;99.23
65758;BME280;52495;52.208;5.158;2023-03-14T08:30:04;99275.59;;;5.57;99.85
65758;BME280;52495;52.208;5.158;2023-03-14T08:32:31;99282.00;;;5.76;98.79
65758;BME280;52495;52.208;5.158;2023-03-14T08:34:58;99286.13;;;5.82;98.31
65758;BME280;52495;52.208;5.158;2023-03-14T08:37:24;99309.63;;;6.03;98.54
65758;BME280;52495;52.208;5.158;2023-03-14T08:39:52;99311.31;;;6.04;97.27
65758;BME280;52495;52.208;5.158;2023-03-14T08:42:21;99333.19;;;6.17;96.69
65758;BME280;52495;52.208;5.158;2023-03-14T08:44:47;99342.63;;;6.15;92.57
65758;BME280;52495;52.208;5.158;2023-03-14T08:47:14;99352.16;;;6.10;91.13
65758;BME280;52495;52.208;5.158;2023-03-14T08:49:41;99356.22;;;6.19;92.54
65758;BME280;52495;52.208;5.158;2023-03-14T08:52:08;99366.50;;;6.17;91.43
65758;BME280;52495;52.208;5.158;2023-03-14T08:54:35;99381.78;;;6.22;93.41
65758;BME280;52495;52.208;5.158;2023-03-14T08:57:02;99386.69;;;6.31;93.74
65758;BME280;52495;52.208;5.158;2023-03-14T08:59:30;99386.44;;;6.42;92.08
65758;BME280;52495;52.208;5.158;2023-03-14T09:01:57;99421.63;;;6.35;87.36
65758;BME280;52495;52.208;5.158;2023-03-14T09:04:23;99404.47;;;6.39;87.63
65758;BME280;52495;52.208;5.158;2023-03-14T09:06:50;99418.97;;;6.40;87.50
65758;BME280;52495;52.208;5.158;2023-03-14T09:09:17;99429.00;;;6.49;86.34
65758;BME280;52495;52.208;5.158;2023-03-14T09:11:44;99441.94;;;6.45;86.53
65758;BME280;52495;52.208;5.158;2023-03-14T09:14:10;99455.69;;;6.41;87.22
65758;BME280;52495;52.208;5.158;2023-03-14T09:16:39;99448.03;;;6.39;88.07
65758;BME280;52495;52.208;5.158;2023-03-14T09:19:05;99468.59;;;6.37;86.89
65758;BME280;52495;52.208;5.158;2023-03-14T09:21:32;99472.84;;;6.38;85.64
65758;BME280;52495;52.208;5.158;2023-03-14T09:23:59;99494.53;;;6.23;85.84
65758;BME280;52495;52.208;5.158;2023-03-14T09:26:26;99503.91;;;6.25;87.10
65758;BME280;52495;52.208;5.158;2023-03-14T09:28:53;99510.00;;;6.17;88.47
65758;BME280;52495;52.208;5.158;2023-03-14T09:31:19;99513.28;;;6.24;87.87
65758;BME280;52495;52.208;5.158;2023-03-14T09:33:48;99525.31;;;6.22;87.96
65758;BME280;52495;52.208;5.158;2023-03-14T09:36:14;99525.34;;;6.20;88.65
65758;BME280;52495;52.208;5.158;2023-03-14T09:38:41;99543.22;;;6.23;88.46
65758;BME280;52495;52.208;5.158;2023-03-14T09:41:15;99541.78;;;6.10;89.23
65758;BME280;52495;52.208;5.158;2023-03-14T09:43:43;99562.06;;;6.21;89.20
65758;BME280;52495;52.208;5.158;2023-03-14T09:46:12;99571.44;;;6.22;89.82
65758;BME280;52495;52.208;5.158;2023-03-14T09:48:40;99563.59;;;6.30;89.08
65758;BME280;52495;52.208;5.158;2023-03-14T09:51:15;99594.66;;;6.14;90.24
65758;BME280;52495;52.208;5.158;2023-03-14T09:53:45;99595.53;;;6.13;89.00
65758;BME280;52495;52.208;5.158;2023-03-14T09:56:16;99597.44;;;6.03;88.94
65758;BME280;52495;52.208;5.158;2023-03-14T09:58:49;99626.38;;;6.07;89.70
65758;BME280;52495;52.208;5.158;2023-03-14T10:01:20;99639.31;;;6.01;90.26
65758;BME280;52495;52.208;5.158;2023-03-14T10:03:48;99637.66;;;5.97;90.55
65758;BME280;52495;52.208;5.158;2023-03-14T10:06:19;99652.94;;;6.04;91.34
65758;BME280;52495;52.208;5.158;2023-03-14T10:08:45;99652.47;;;5.77;91.22
65758;BME280;52495;52.208;5.158;2023-03-14T10:11:15;99664.25;;;5.89;92.09
65758;BME280;52495;52.208;5.158;2023-03-14T10:13:52;99668.38;;;5.98;90.76
65758;BME280;52495;52.208;5.158;2023-03-14T10:16:29;99670.03;;;6.02;90.81
65758;BME280;52495;52.208;5.158;2023-03-14T10:19:02;99688.53;;;6.20;91.08
65758;BME280;52495;52.208;5.158;2023-03-14T10:21:35;99683.28;;;6.26;89.47
65758;BME280;52495;52.208;5.158;2023-03-14T10:24:18;99698.50;;;6.35;89.38
65758;BME280;52495;52.208;5.158;2023-03-14T10:26:48;99709.09;;;6.62;86.40
65758;BME280;52495;52.208;5.158;2023-03-14T10:29:16;99708.13;;;6.70;84.34
65758;BME280;52495;52.208;5.158;2023-03-14T10:31:49;99712.22;;;6.77;81.63
65758;BME280;52495;52.208;5.158;2023-03-14T10:34:21;99737.22;;;6.67;81.22
65758;BME280;52495;52.208;5.158;2023-03-14T10:36:54;99758.56;;;6.69;79.93
65758;BME280;52495;52.208;5.158;2023-03-14T10:39:26;99767.44;;;6.51;79.16
65758;BME280;52495;52.208;5.158;2023-03-14T10:41:55;99776.84;;;6.50;75.93
65758;BME280;52495;52.208;5.158;2023-03-14T10:44:25;99791.50;;;6.44;73.24
65758;BME280;52495;52.208;5.158;2023-03-14T10:46:56;99805.47;;;6.26;75.64
65758;BME280;52495;52.208;5.158;2023-03-14T10:49:28;99807.88;;;6.35;72.68
65758;BME280;52495;52.208;5.158;2023-03-14T10:52:01;99813.56;;;6.54;72.86
65758;BME280;52495;52.208;5.158;2023-03-14T10:54:30;99824.59;;;6.58;72.83
65758;BME280;52495;52.208;5.158;2023-03-14T10:56:57;99838.38;;;6.50;72.70
65758;BME280;52495;52.208;5.158;2023-03-14T10:59:27;99836.63;;;6.54;71.25
65758;BME280;52495;52.208;5.158;2023-03-14T11:01:59;99846.94;;;6.49;70.75
65758;BME280;52495;52.208;5.158;2023-03-14T11:04:47;99860.81;;;6.89;69.75
65758;BME280;52495;52.208;5.158;2023-03-14T11:07:25;99874.22;;;7.05;69.58
65758;BME280;52495;52.208;5.158;2023-03-14T11:09:58;99890.97;;;7.25;66.46
65758;BME280;52495;52.208;5.158;2023-03-14T11:12:37;99885.44;;;7.45;67.03
65758;BME280;52495;52.208;5.158;2023-03-14T11:15:11;99904.13;;;7.52;66.56
65758;BME280;52495;52.208;5.158;2023-03-14T11:17:47;99908.38;;;7.54;63.02
65758;BME280;52495;52.208;5.158;2023-03-14T11:20:35;99915.38;;;7.48;62.34
65758;BME280;52495;52.208;5.158;2023-03-14T11:23:12;99923.31;;;7.34;63.34
65758;BME280;52495;52.208;5.158;2023-03-14T11:25:44;99932.91;;;7.24;62.78
65758;BME280;52495;52.208;5.158;2023-03-14T11:28:18;99944.06;;;7.24;60.64
65758;BME280;52495;52.208;5.158;2023-03-14T11:30:51;99950.06;;;7.23;60.37
65758;BME280;52495;52.208;5.158;2023-03-14T11:33:22;99964.31;;;7.38;58.38
65758;BME280;52495;52.208;5.158;2023-03-14T11:35:58;99982.19;;;7.44;55.90
65758;BME280;52495;52.208;5.158;2023-03-14T11:38:33;99985.44;;;7.53;56.63
65758;BME280;52495;52.208;5.158;2023-03-14T11:41:01;99973.84;;;7.33;54.52
65758;BME280;52495;52.208;5.158;2023-03-14T11:43:30;99992.69;;;7.31;52.90
65758;BME280;52495;52.208;5.158;2023-03-14T11:46:04;99996.28;;;7.23;52.79
65758;BME280;52495;52.208;5.158;2023-03-14T11:48:40;100006.47;;;7.26;54.95
65758;BME280;52495;52.208;5.158;2023-03-14T11:51:15;100029.06;;;7.56;53.21
65758;BME280;52495;52.208;5.158;2023-03-14T11:53:55;100015.41;;;7.55;52.60
65758;BME280;52495;52.208;5.158;2023-03-14T11:56:29;100012.09;;;7.47;53.21
65758;BME280;52495;52.208;5.158;2023-03-14T11:59:00;100045.28;;;7.59;54.37
65758;BME280;52495;52.208;5.158;2023-03-14T12:01:36;100028.44;;;7.44;54.58
65758;BME280;52495;52.208;5.158;2023-03-14T12:04:16;100052.06;;;7.64;52.11
65758;BME280;52495;52.208;5.158;2023-03-14T12:06:49;100042.03;;;7.50;51.98
65758;BME280;52495;52.208;5.158;2023-03-14T12:09:19;100059.88;;;7.57;52.18
65758;BME280;52495;52.208;5.158;2023-03-14T12:11:49;100055.63;;;7.55;49.24
65758;BME280;52495;52.208;5.158;2023-03-14T12:14:21;100059.75;;;7.13;50.35
65758;BME280;52495;52.208;5.158;2023-03-14T12:16:49;100071.34;;;7.36;51.47
65758;BME280;52495;52.208;5.158;2023-03-14T12:19:37;100081.56;;;7.41;52.97
65758;BME280;52495;52.208;5.158;2023-03-14T12:22:29;100082.09;;;7.60;50.03
65758;BME280;52495;52.208;5.158;2023-03-14T12:25:03;100080.50;;;7.53;47.48
65758;BME280;52495;52.208;5.158;2023-03-14T12:30:37;100124.78;;;7.69;46.75
65758;BME280;52495;52.208;5.158;2023-03-14T12:33:26;100099.13;;;7.66;46.48
65758;BME280;52495;52.208;5.158;2023-03-14T12:36:01;100112.06;;;7.61;46.62
65758;BME280;52495;52.208;5.158;2023-03-14T12:38:47;100110.09;;;7.75;46.87
65758;BME280;52495;52.208;5.158;2023-03-14T12:41:23;100106.88;;;7.63;46.95
65758;BME280;52495;52.208;5.158;2023-03-14T12:43:51;100120.94;;;7.41;47.27
65758;BME280;52495;52.208;5.158;2023-03-14T12:46:23;100120.28;;;7.27;47.74
65758;BME280;52495;52.208;5.158;2023-03-14T12:48:54;100130.31;;;7.42;47.54
65758;BME280;52495;52.208;5.158;2023-03-14T12:51:28;100156.03;;;7.41;49.47
65758;BME280;52495;52.208;5.158;2023-03-14T12:54:25;100157.59;;;7.51;47.71
65758;BME280;52495;52.208;5.158;2023-03-14T12:57:15;100161.72;;;7.60;47.29
65758;BME280;52495;52.208;5.158;2023-03-14T12:59:50;100150.72;;;7.53;48.80
65758;BME280;52495;52.208;5.158;2023-03-14T13:02:22;100162.88;;;7.95;49.15
65758;BME280;52495;52.208;5.158;2023-03-14T13:04:52;100159.38;;;7.99;48.08
65758;BME280;52495;52.208;5.158;2023-03-14T13:07:34;100175.69;;;7.97;47.44
65758;BME280;52495;52.208;5.158;2023-03-14T13:10:04;100177.06;;;8.16;47.54
65758;BME280;52495;52.208;5.158;2023-03-14T13:12:47;100184.13;;;8.05;46.02
65758;BME280;52495;52.208;5.158;2023-03-14T13:15:18;100186.66;;;8.07;44.61
65758;BME280;52495;52.208;5.158;2023-03-14T13:17:47;100196.13;;;8.04;46.00
65758;BME280;52495;52.208;5.158;2023-03-14T13:20:17;100205.03;;;7.85;46.70
65758;BME280;52495;52.208;5.158;2023-03-14T13:22:48;100214.13;;;8.04;47.61
65758;BME280;52495;52.208;5.158;2023-03-14T13:25:16;100201.25;;;8.04;47.00
65758;BME280;52495;52.208;5.158;2023-03-14T13:27:47;100214.53;;;7.78;46.66
65758;BME280;52495;52.208;5.158;2023-03-14T13:30:17;100219.19;;;8.09;47.01